Osceola Municipal, IA

2:52 AM CDT on June 28, 2017 (GMT -0500)
Osceola Municipal

Weather History for KI75 - April, 2014

Change the Weather History Date:

Tuesday, April 8, 2014

  Actual Average (KCNC) Record (KCNC)
Temperature  
Mean Temperature 46 °F -  
Max Temperature 56 °F 59 °F 82 °F (2001)
Min Temperature 37 °F 37 °F 12 °F (1990)
Degree Days  
Heating Degree Days 18    
Moisture  
Dew Point 28 °F    
Average Humidity 53    
Maximum Humidity 83    
Minimum Humidity 21    
Precipitation  
Precipitation 0.00 in - - ()
Sea Level Pressure  
Sea Level Pressure 29.95 in    
Wind  
Wind Speed 11 mph (NW)    
Max Wind Speed 22 mph    
Max Gust Speed 29 mph    
Visibility 10 miles    
Events      
Averages and records for this station are not official NWS values.
T = Trace of Precipitation, MM = Missing Value Source: NWS Daily Summary

Daily Weather History Graph

Daily Weather History Graph

Search for Another Location

Airport or City:

Trip Planner

Search our weather history database for the weather conditions in past years. The results will help you decide how hot, cold, wet, or windy it might be!

Date:

Astronomy

Apr. 08, 2014 Rise Set
Actual Time 6:46 AM CDT 7:47 PM CDT
Civil Twilight 6:18 AM CDT 8:15 PM CDT
Nautical Twilight 5:45 AM CDT 8:48 PM CDT
Astronomical Twilight 5:10 AM CDT 9:23 PM CDT
Moon 1:38 PM CDT (4/8) 3:02 AM CDT (4/8)
Length of Visible Light 13h 56m
Length of Day
13h 00m
Waxing Gibbous, 63% of the Moon is Illuminated
Apr 8
Waxing Gibbous
Apr 15
Full
Apr 22
Last Quarter
Apr 29
New
May 6
First Quarter

Hourly Weather History & Observations

Time (CDT) Temp. Windchill Dew Point Humidity Pressure Visibility Wind Dir Wind Speed Gust Speed Precip Events Conditions
12:15 AM 44.6 °F 39.7 °F 36.7 °F 74% 29.84 in 10.0 mi WNW 9.2 mph - N/A   Scattered Clouds
12:35 AM 45.0 °F 40.1 °F 36.5 °F 72% 29.85 in 10.0 mi NW 9.2 mph - N/A   Clear
1:15 AM 43.2 °F 38.4 °F 34.7 °F 72% 29.85 in 10.0 mi WNW 8.1 mph - N/A   Clear
1:35 AM 43.0 °F 38.8 °F 34.3 °F 72% 29.85 in 10.0 mi NW 6.9 mph - N/A   Clear
1:55 AM 42.8 °F 38.0 °F 34.0 °F 71% 29.85 in 10.0 mi WNW 8.1 mph - N/A   Clear
2:15 AM 42.1 °F 37.1 °F 33.6 °F 72% 29.85 in 10.0 mi WNW 8.1 mph - N/A   Clear
2:35 AM 41.0 °F 36.4 °F 33.1 °F 73% 29.84 in 10.0 mi WNW 6.9 mph - N/A   Clear
2:55 AM 38.3 °F 33.2 °F 32.4 °F 79% 29.85 in 10.0 mi WNW 6.9 mph - N/A   Clear
3:15 AM 38.3 °F 33.2 °F 32.2 °F 79% 29.85 in 10.0 mi WNW 6.9 mph - N/A   Clear
3:35 AM 38.8 °F 34.6 °F 32.9 °F 79% 29.85 in 10.0 mi WNW 5.8 mph - N/A   Scattered Clouds
3:55 AM 40.5 °F 35.8 °F 32.5 °F 73% 29.84 in 10.0 mi NW 6.9 mph - N/A   Mostly Cloudy
4:15 AM 39.7 °F 34.9 °F 32.4 °F 75% 29.84 in 10.0 mi NW 6.9 mph - N/A   Clear
4:35 AM 39.4 °F 34.5 °F 32.4 °F 76% 29.84 in 10.0 mi NW 6.9 mph - N/A   Clear
4:55 AM 40.1 °F 34.1 °F 32.5 °F 74% 29.85 in 10.0 mi WNW 9.2 mph - N/A   Clear
5:15 AM 37.8 °F 32.5 °F 32.0 °F 80% 29.85 in 10.0 mi WNW 6.9 mph - N/A   Clear
5:35 AM 38.3 °F 31.9 °F 32.4 °F 79% 29.86 in 10.0 mi WNW 9.2 mph - N/A   Clear
5:55 AM 37.9 °F 32.1 °F 32.5 °F 81% 29.87 in 10.0 mi WNW 8.1 mph - N/A   Mostly Cloudy
6:15 AM 38.1 °F 31.7 °F 33.1 °F 82% 29.88 in 10.0 mi WNW 9.2 mph - N/A   Overcast
6:35 AM 38.8 °F 32.6 °F 33.3 °F 80% 29.88 in 10.0 mi WNW 9.2 mph - N/A   Mostly Cloudy
6:55 AM 38.3 °F 30.9 °F 33.1 °F 81% 29.89 in 10.0 mi WNW 11.5 mph - N/A   Scattered Clouds
7:15 AM 38.7 °F 31.8 °F 33.6 °F 82% 29.90 in 10.0 mi WNW 10.4 mph - N/A   Mostly Cloudy
7:35 AM 38.5 °F 31.1 °F 33.8 °F 83% 29.90 in 10.0 mi WNW 11.5 mph - N/A   Scattered Clouds
7:55 AM 38.8 °F 32.6 °F 33.8 °F 82% 29.91 in 10.0 mi WNW 9.2 mph - N/A   Scattered Clouds
8:15 AM 40.5 °F 32.8 °F 34.7 °F 80% 29.91 in 10.0 mi NW 13.8 mph 17.3 mph N/A   Clear
8:35 AM 41.7 °F 34.8 °F 34.9 °F 77% 29.92 in 10.0 mi NW 12.7 mph 20.7 mph N/A   Clear
8:55 AM 43.2 °F 35.0 °F 34.9 °F 73% 29.92 in 10.0 mi NW 18.4 mph 21.9 mph N/A   Clear
9:15 AM 43.9 °F 35.9 °F 34.3 °F 69% 29.93 in 10.0 mi NNW 18.4 mph 23.0 mph N/A   Clear
9:35 AM 45.5 °F 39.6 °F 33.8 °F 64% 29.93 in 10.0 mi NW 12.7 mph - N/A   Clear
9:55 AM 45.5 °F 38.1 °F 33.4 °F 63% 29.94 in 10.0 mi NW 18.4 mph 21.9 mph N/A   Clear
10:15 AM 46.6 °F - 33.1 °F 59% 29.95 in 10.0 mi NNW 11.5 mph 18.4 mph N/A   Scattered Clouds
10:35 AM 47.7 °F - 31.8 °F 54% 29.96 in 10.0 mi NW 15.0 mph 18.4 mph N/A   Clear
10:55 AM 49.3 °F - 28.4 °F 45% 29.97 in 10.0 mi NNW 17.3 mph 25.3 mph N/A   Mostly Cloudy
11:15 AM 51.1 °F - 29.1 °F 43% 29.97 in 10.0 mi NNW 16.1 mph 24.2 mph N/A   Scattered Clouds
11:35 AM 52.5 °F - 30.6 °F 43% 29.97 in 10.0 mi NW 19.6 mph 23.0 mph N/A   Scattered Clouds
11:55 AM 51.8 °F - 30.9 °F 45% 29.98 in 10.0 mi NW 18.4 mph 25.3 mph N/A   Scattered Clouds
12:15 PM 52.2 °F - 31.3 °F 45% 29.98 in 10.0 mi NW 17.3 mph 23.0 mph N/A   Scattered Clouds
12:35 PM 53.6 °F - 30.0 °F 41% 29.98 in 10.0 mi NNW 12.7 mph 26.5 mph N/A   Scattered Clouds
12:55 PM 54.1 °F - 30.2 °F 40% 29.97 in 10.0 mi NNW 21.9 mph 27.6 mph N/A   Scattered Clouds
1:15 PM 54.1 °F - 29.5 °F 39% 29.97 in 10.0 mi NW 18.4 mph 26.5 mph N/A   Mostly Cloudy
1:35 PM 55.0 °F - 28.9 °F 37% 29.97 in 10.0 mi NNW 18.4 mph 28.8 mph N/A   Mostly Cloudy
1:55 PM 54.5 °F - 29.7 °F 39% 29.97 in 10.0 mi NNW 18.4 mph 24.2 mph N/A   Mostly Cloudy
2:15 PM 54.0 °F - 29.7 °F 39% 29.97 in 10.0 mi NW 20.7 mph 26.5 mph N/A   Mostly Cloudy
2:35 PM 54.7 °F - 30.4 °F 40% 29.98 in 10.0 mi NNW 19.6 mph 26.5 mph N/A   Mostly Cloudy
2:55 PM 55.4 °F - 29.8 °F 38% 29.98 in 10.0 mi NW 17.3 mph 26.5 mph N/A   Mostly Cloudy
3:15 PM 54.1 °F - 28.6 °F 37% 29.98 in 10.0 mi NNW 19.6 mph 23.0 mph N/A   Scattered Clouds
3:35 PM 56.1 °F - 26.6 °F 32% 29.97 in 10.0 mi NNW 19.6 mph 26.5 mph N/A   Scattered Clouds
3:55 PM 55.9 °F - 22.3 °F 27% 29.97 in 10.0 mi WNW 20.7 mph 26.5 mph N/A   Scattered Clouds
4:15 PM 56.5 °F - 19.6 °F 24% 29.97 in 10.0 mi NNW 15.0 mph 24.2 mph N/A   Clear
4:35 PM 56.1 °F - 18.0 °F 22% 29.98 in 10.0 mi NW 16.1 mph 28.8 mph N/A   Clear
4:55 PM 55.9 °F - 21.9 °F 27% 29.98 in 10.0 mi North 17.3 mph 24.2 mph N/A   Clear
5:15 PM 56.3 °F - 16.0 °F 21% 29.98 in 10.0 mi NNW 19.6 mph 26.5 mph N/A   Clear
5:35 PM 55.6 °F - 18.9 °F 24% 29.99 in 10.0 mi NNW 16.1 mph 26.5 mph N/A   Clear
5:55 PM 55.6 °F - 18.5 °F 23% 29.99 in 10.0 mi NW 13.8 mph - N/A   Clear
6:15 PM 54.5 °F - 17.2 °F 23% 30.00 in 10.0 mi NNW 19.6 mph 25.3 mph N/A   Clear
6:35 PM 53.8 °F - 17.6 °F 24% 30.00 in 10.0 mi NNW 19.6 mph 24.2 mph N/A   Clear
6:55 PM 52.9 °F - 17.4 °F 25% 30.01 in 10.0 mi NNW 15.0 mph 21.9 mph N/A   Clear
7:15 PM 51.6 °F - 18.5 °F 27% 30.01 in 10.0 mi NNW 13.8 mph - N/A   Clear
7:35 PM 50.2 °F - 16.7 °F 27% 30.02 in 10.0 mi NW 12.7 mph 17.3 mph N/A   Clear
7:55 PM 48.4 °F - 17.6 °F 29% 30.03 in 10.0 mi NNW 10.4 mph - N/A   Clear
8:15 PM 45.3 °F 42.3 °F 17.6 °F 33% 30.04 in 10.0 mi NNW 5.8 mph - N/A   Clear
8:35 PM 43.9 °F 40.5 °F 19.0 °F 37% 30.04 in 10.0 mi NNW 5.8 mph - N/A   Clear
8:55 PM 42.3 °F 38.6 °F 19.2 °F 40% 30.04 in 10.0 mi North 5.8 mph - N/A   Clear
9:15 PM 44.1 °F 40.8 °F 19.4 °F 37% 30.05 in 10.0 mi NNW 5.8 mph - N/A   Clear
9:35 PM 43.2 °F 40.5 °F 20.3 °F 40% 30.06 in 10.0 mi NW 4.6 mph - N/A   Clear
9:55 PM 42.3 °F 38.6 °F 20.7 °F 42% 30.06 in 10.0 mi NW 5.8 mph - N/A   Clear
10:15 PM 40.1 °F 36.1 °F 21.2 °F 47% 30.06 in 10.0 mi WNW 5.8 mph - N/A   Clear
10:35 PM 40.5 °F 37.3 °F 21.0 °F 46% 30.06 in 10.0 mi WNW 4.6 mph - N/A   Clear
10:55 PM 38.7 °F 35.2 °F 21.0 °F 49% 30.06 in 10.0 mi WNW 4.6 mph - N/A   Clear
11:15 PM 39.0 °F 35.7 °F 21.6 °F 50% 30.05 in 10.0 mi WNW 4.6 mph - N/A   Clear
11:35 PM 40.1 °F 36.9 °F 21.7 °F 48% 30.05 in 10.0 mi WNW 4.6 mph - N/A   Clear
11:55 PM 38.1 °F 35.7 °F 21.7 °F 52% 30.05 in 10.0 mi WNW 3.5 mph - N/A   Clear